Aeroporto :
LOGIN :

Iscrizione | Disclaimer

   EN    FR    IT 

 










Sommario :    VFR   VFR Marginale   IFR   IFR Intensivo   IFR Molto Intensivo
Visibilità : 
Base nubi : 
>= 8 km
>= 3000ft
5 / 8 km
1000 / 3000 ft
1500m / 5 km
500 / 1000 ft
800 / 1500m
200 / 500 ft
< 800m
< 200 ft
Simboli :   Temporali  Nebbia  Neve Forte  Precipitazioni Forti  Vento > 20 kt
SIGMETs :   Varie  Temporali  Ghiacco  Turbolenza  Onda orograficha  Ceneri Vulcaniche






- Altitudine del aeroporto : 80 ft
- Codice IATA : LPL


EGGP - Liverpool John Lennon

ULTIMO METAR :
  • 222050Z 09010KT 9999 SCT020 08/08 Q0994

METARs OBSOLETI :
  • 222020Z 09008KT 9999 SCT020 08/07 Q0994
  • 221950Z 09011KT 9999 SCT020 08/08 Q0994
  • 221920Z 09013KT 9000 -RA SCT021 BKN033 08/08 Q0994
  • 221850Z 08012KT 9000 -RA FEW023 BKN036 08/08 Q0993
  • 221820Z 09011KT 9000 -RA SCT023 BKN041 08/08 Q0994
  • 221750Z 10009KT 9000 -RA SCT024 BKN048 08/08 Q0994

TAF TAF EGGP
Valido dal 22 a 18 ore il 23 a 18 ore UTC


221658Z 2218/2318 13010KT 9999 SCT010
TEMPO 2218/2221 4000 RA BKN010
TEMPO 2221/2302 BKN010
BECMG 2223/2302 07008KT
TEMPO 2302/2311 6000 RA BKN012
BECMG 2311/2313 8000 -RADZ BKN010
TEMPO 2311/2318 3000 RADZ BKN004
ATIS : +44 151 907 2000 (option 5 or ext 5150)
Met : +44 871 750 5150



MetMap, La meteo Aeronautica in un colpo d'occhio ! - Copyright ORBIFLY Dicembre 2007 - Disclaimer

ORBIFLY MET'MAP TEAM :

Programmazione e sviluppo : Alexandra Zaïnal
Concezione e sviluppo : Baudouin d'Aumeries
Co-Programmazione e sviluppo : Marc-Olivier Méhu
Supporto tecnico e logistico : Manuel Goepfert
Aiuto per la traduzione : Arnaldo La Scala

Contatto : metmap@orbifly.com




FONTI E CREDITI :

   NOAA